Time;durP1;ratioP1;P1;durP2;ratioP2;P2;SDS_P1;SDS_P2;PMS_P1;PMS_P2;Temp;Humidity;BMP_temperature;BMP_pressure;BME280_temperature;BME280_humidity;BME280_pressure;Samples;Min_cycle;Max_cycle;Signal;HPM_P1;HPM_P2
2021/11/24 00:00:49;;;;;;;;;;;;;;;5.87;100.00;102768.28;5030590;28;19933;-54
2021/11/24 00:03:16;;;;;;;;;;;;;;;5.87;100.00;102766.53;5032731;28;19960;-54
2021/11/24 00:05:43;;;;;;;;;;;;;;;5.85;100.00;102768.31;5047404;28;19951;-53
2021/11/24 00:08:09;;;;;;;;;;;;;;;5.86;100.00;102771.78;5032699;28;19979;-52
2021/11/24 00:10:36;;;;;;;;;;;;;;;5.82;100.00;102760.53;5034219;28;20051;-52
2021/11/24 00:13:03;;;;;;;;;;;;;;;5.80;100.00;102764.06;5032472;28;19979;-53
2021/11/24 00:15:30;;;;;;;;;;;;;;;5.77;100.00;102764.97;5046135;28;19929;-53
2021/11/24 00:17:56;;;;;;;;;;;;;;;5.74;100.00;102768.47;5034938;28;19975;-55
2021/11/24 00:20:23;;;;;;;;;;;;;;;5.70;100.00;102769.41;5033346;28;20392;-54
2021/11/24 00:22:50;;;;;;;;;;;;;;;5.75;100.00;102766.72;5031042;28;19937;-50
2021/11/24 00:25:16;;;;;;;;;;;;;;;5.70;100.00;102760.69;5031339;28;19925;-52
2021/11/24 00:27:43;;;;;;;;;;;;;;;5.66;100.00;102764.22;5031842;28;19936;-53
2021/11/24 00:30:10;;;;;;;;;;;;;;;5.61;100.00;102761.69;5045988;28;19929;-50
2021/11/24 00:32:36;;;;;;;;;;;;;;;5.58;100.00;102761.75;5034486;28;19929;-52
2021/11/24 00:35:03;;;;;;;;;;;;;;;5.55;100.00;102759.19;5034246;28;19925;-49
2021/11/24 00:37:30;;;;;;;;;;;;;;;5.53;100.00;102756.56;5034197;28;19929;-54
2021/11/24 00:40:01;;;;;;;;;;;;;;;5.49;100.00;102760.09;5034233;28;19925;-52
2021/11/24 00:42:28;;;;;;;;;;;;;;;5.47;100.00;102748.84;5030433;28;20351;-55
2021/11/24 00:44:54;;;;;;;;;;;;;;;5.46;100.00;102754.06;5030902;28;19926;-56
2021/11/24 00:47:21;;;;;;;;;;;;;;;5.44;100.00;102751.50;5049515;28;19925;-56
2021/11/24 00:49:48;;;;;;;;;;;;;;;5.41;100.00;102754.13;5034113;28;19932;-55
2021/11/24 00:52:14;;;;;;;;;;;;;;;5.34;100.00;102752.47;5033987;28;19925;-55
2021/11/24 00:54:41;;;;;;;;;;;;;;;5.33;100.00;102746.41;5030023;28;20371;-54
2021/11/24 00:57:08;;;;;;;;;;;;;;;5.32;100.00;102746.44;5046954;28;19929;-56
2021/11/24 00:59:34;;;;;;;;;;;;;;;5.34;100.00;102744.66;5034014;28;19925;-54
2021/11/24 01:02:01;;;;;;;;;;;;;;;5.35;100.00;102743.78;5033944;28;20483;-55
2021/11/24 01:04:28;;;;;;;;;;;;;;;5.29;100.00;102736.00;5032504;28;19983;-52
2021/11/24 01:06:54;;;;;;;;;;;;;;;5.34;100.00;102742.91;5031216;28;19987;-54
2021/11/24 01:09:21;;;;;;;;;;;;;;;5.33;100.00;102746.41;5030788;28;19952;-54
2021/11/24 01:11:48;;;;;;;;;;;;;;;5.32;100.00;102749.03;5029949;28;19926;-52
2021/11/24 01:14:15;;;;;;;;;;;;;;;5.31;100.00;102744.69;5030140;28;19929;-51
2021/11/24 01:16:42;;;;;;;;;;;;;;;5.33;100.00;102742.91;5028817;28;19936;-49
2021/11/24 01:19:09;;;;;;;;;;;;;;;5.32;100.00;102741.22;5029974;28;20399;-49
2021/11/24 01:21:36;;;;;;;;;;;;;;;5.35;100.00;102743.78;5029627;28;19932;-49
2021/11/24 01:24:03;;;;;;;;;;;;;;;5.34;100.00;102736.81;5033340;28;19925;-51
2021/11/24 01:26:29;;;;;;;;;;;;;;;5.35;100.00;102738.56;5033427;28;19925;-47
2021/11/24 01:28:56;;;;;;;;;;;;;;;5.36;100.00;102737.69;5029546;28;19936;-53
2021/11/24 01:31:22;;;;;;;;;;;;;;;5.37;100.00;102736.78;5046679;28;19936;-49
2021/11/24 01:33:49;;;;;;;;;;;;;;;5.35;100.00;102739.41;5033648;28;20407;-48
2021/11/24 01:36:16;;;;;;;;;;;;;;;5.37;100.00;102735.03;5031360;28;19925;-54
2021/11/24 01:38:43;;;;;;;;;;;;;;;5.38;100.00;102736.75;5030172;28;19933;-51
2021/11/24 01:41:09;;;;;;;;;;;;;;;5.40;100.00;102734.16;5029276;28;19929;-52
2021/11/24 01:43:36;;;;;;;;;;;;;;;5.43;100.00;102731.50;5031491;28;19925;-51
2021/11/24 01:46:03;;;;;;;;;;;;;;;5.44;100.00;102729.72;5031668;28;19987;-52
2021/11/24 01:48:29;;;;;;;;;;;;;;;5.46;100.00;102734.03;5045330;28;20028;-50
2021/11/24 01:50:58;;;;;;;;;;;;;;;5.44;100.00;102727.13;5030612;28;19951;-51
2021/11/24 01:53:28;;;;;;;;;;;;;;;5.45;100.00;102728.84;5030228;28;20315;-51
2021/11/24 01:55:55;;;;;;;;;;;;;;;5.45;100.00;102728.84;5044607;28;19925;-52
2021/11/24 01:58:25;;;;;;;;;;;;;;;5.43;100.00;102726.28;5045989;28;19925;-56
2021/11/24 02:00:52;;;;;;;;;;;;;;;5.46;100.00;102725.38;5043536;28;20391;-55
2021/11/24 02:03:20;;;;;;;;;;;;;;;5.47;100.00;102722.72;5045687;28;19979;-55
2021/11/24 02:05:46;;;;;;;;;;;;;;;5.45;100.00;102724.47;5032403;28;20373;-56
2021/11/24 02:08:13;;;;;;;;;;;;;;;5.45;100.00;102719.25;5032354;28;20257;-55
2021/11/24 02:10:40;;;;;;;;;;;;;;;5.46;100.00;102715.78;5028716;28;19975;-49
2021/11/24 02:13:06;;;;;;;;;;;;;;;5.45;100.00;102713.19;5029329;28;19960;-48
2021/11/24 02:15:33;;;;;;;;;;;;;;;5.45;100.00;102713.19;5027676;28;19929;-49
2021/11/24 02:18:01;;;;;;;;;;;;;;;5.45;100.00;102707.97;5030202;28;20336;-51
2021/11/24 02:20:34;;;;;;;;;;;;;;;5.47;100.00;102698.38;5029896;28;19975;-54
2021/11/24 02:23:01;;;;;;;;;;;;;;;5.49;100.00;102699.22;5045320;28;19925;-51
2021/11/24 02:25:27;;;;;;;;;;;;;;;5.50;100.00;102691.38;5030970;28;19929;-48
2021/11/24 02:27:54;;;;;;;;;;;;;;;5.52;100.00;102689.59;5032655;28;19932;-47
2021/11/24 02:30:21;;;;;;;;;;;;;;;5.51;100.00;102677.44;5032655;28;20015;-49
2021/11/24 02:32:47;;;;;;;;;;;;;;;5.52;100.00;102683.50;5045298;28;19925;-56
2021/11/24 02:35:14;;;;;;;;;;;;;;;5.53;100.00;102677.41;5030140;28;20331;-51
2021/11/24 02:37:41;;;;;;;;;;;;;;;5.52;100.00;102681.78;5031243;28;19925;-47
2021/11/24 02:40:08;;;;;;;;;;;;;;;5.55;100.00;102676.50;5032680;28;20012;-48
2021/11/24 02:42:38;;;;;;;;;;;;;;;5.52;100.00;102676.56;5045968;28;19925;-49
2021/11/24 02:45:06;;;;;;;;;;;;;;;5.53;100.00;102675.66;5028440;28;19925;-49
2021/11/24 02:47:33;;;;;;;;;;;;;;;5.50;100.00;102665.25;5032065;28;20268;-52
2021/11/24 02:50:03;;;;;;;;;;;;;;;5.50;100.00;102673.09;5031840;28;19929;-52
2021/11/24 02:52:30;;;;;;;;;;;;;;;5.50;100.00;102662.66;5030006;28;19929;-50
2021/11/24 02:54:57;;;;;;;;;;;;;;;5.47;100.00;102660.09;5029568;28;19925;-51
2021/11/24 02:57:55;;;;;;;;;;;;;;;5.45;100.00;102661.84;5029090;28;19925;-51
2021/11/24 03:00:21;;;;;;;;;;;;;;;5.47;100.00;102660.09;5027971;28;19929;-53
2021/11/24 03:02:48;;;;;;;;;;;;;;;5.46;100.00;102660.13;5029802;28;19940;-52
2021/11/24 03:05:16;;;;;;;;;;;;;;;5.46;100.00;102647.94;5029551;28;20048;-53
2021/11/24 03:07:43;;;;;;;;;;;;;;;5.46;100.00;102640.09;5029416;28;19925;-54
2021/11/24 03:10:10;;;;;;;;;;;;;;;5.47;100.00;102639.22;5044981;28;20354;-51
2021/11/24 03:12:36;;;;;;;;;;;;;;;5.49;100.00;102639.19;5029688;28;19925;-52
2021/11/24 03:15:04;;;;;;;;;;;;;;;5.49;100.00;102632.22;5031085;28;19976;-50
2021/11/24 03:17:31;;;;;;;;;;;;;;;5.49;100.00;102640.03;5028968;28;19925;-51
2021/11/24 03:19:57;;;;;;;;;;;;;;;5.55;100.00;102632.13;5029538;28;19948;-53
2021/11/24 03:22:24;;;;;;;;;;;;;;;5.55;100.00;102629.53;5029371;28;19933;-52
2021/11/24 03:24:55;;;;;;;;;;;;;;;5.57;100.00;102616.44;5032764;28;20388;-53
2021/11/24 03:27:23;;;;;;;;;;;;;;;5.51;100.00;102612.19;5032653;28;19975;-52
2021/11/24 03:29:49;;;;;;;;;;;;;;;5.50;100.00;102613.06;5032796;28;20019;-52
2021/11/24 03:32:16;;;;;;;;;;;;;;;5.52;100.00;102611.31;5036084;28;19925;-50
2021/11/24 03:34:43;;;;;;;;;;;;;;;5.52;100.00;102619.13;5036001;28;20248;-54
2021/11/24 03:37:09;;;;;;;;;;;;;;;5.51;100.00;102611.34;5035909;28;19944;-53
2021/11/24 03:39:36;;;;;;;;;;;;;;;5.54;100.00;102608.66;5035692;28;19925;-55
2021/11/24 03:42:03;;;;;;;;;;;;;;;5.55;100.00;102606.03;5035655;28;19983;-50
2021/11/24 03:44:30;;;;;;;;;;;;;;;5.55;100.00;102598.19;5050782;28;19931;-52
2021/11/24 03:46:56;;;;;;;;;;;;;;;5.53;100.00;102592.13;5033767;28;20462;-53
2021/11/24 03:49:23;;;;;;;;;;;;;;;5.55;100.00;102592.13;5032821;28;20015;-53
2021/11/24 03:51:51;;;;;;;;;;;;;;;5.53;100.00;102593.88;5033443;28;19925;-55
2021/11/24 03:54:17;;;;;;;;;;;;;;;5.48;100.00;102593.97;5031692;28;19925;-55
2021/11/24 03:56:44;;;;;;;;;;;;;;;5.51;100.00;102595.69;5032183;28;20686;-55
2021/11/24 03:59:11;;;;;;;;;;;;;;;5.53;100.00;102601.72;5046932;28;20399;-51
2021/11/24 04:01:37;;;;;;;;;;;;;;;5.47;100.00;102601.81;5033472;28;19962;-49
2021/11/24 04:04:04;;;;;;;;;;;;;;;5.50;100.00;102599.16;5035069;28;19944;-53
2021/11/24 04:06:33;;;;;;;;;;;;;;;5.49;100.00;102595.69;5034214;28;20462;-52
2021/11/24 04:09:00;;;;;;;;;;;;;;;5.52;100.00;102589.53;5032036;28;19929;-55
2021/11/24 04:11:27;;;;;;;;;;;;;;;5.45;100.00;102588.78;5032762;28;19932;-51
2021/11/24 04:13:54;;;;;;;;;;;;;;;5.47;100.00;102584.41;5050117;28;20335;-52
2021/11/24 04:16:21;;;;;;;;;;;;;;;5.41;100.00;102581.88;5034710;28;19994;-53
2021/11/24 04:18:48;;;;;;;;;;;;;;;5.41;100.00;102581.88;5047908;28;19971;-50
2021/11/24 04:21:18;;;;;;;;;;;;;;;5.41;100.00;102581.88;5031704;28;19925;-55
2021/11/24 04:23:45;;;;;;;;;;;;;;;5.38;100.00;102574.13;5046848;28;19936;-53
2021/11/24 04:26:11;;;;;;;;;;;;;;;5.38;100.00;102571.50;5031346;28;20319;-53
2021/11/24 04:28:38;;;;;;;;;;;;;;;5.33;100.00;102571.59;5034218;28;19925;-52
2021/11/24 04:31:09;;;;;;;;;;;;;;;5.35;100.00;102556.75;5034618;28;19987;-55
2021/11/24 04:33:37;;;;;;;;;;;;;;;5.36;100.00;102560.25;5031476;28;19929;-57
2021/11/24 04:36:04;;;;;;;;;;;;;;;5.33;100.00;102557.66;5031952;28;19929;-50
2021/11/24 04:38:31;;;;;;;;;;;;;;;5.29;100.00;102556.88;5031571;28;19929;-49
2021/11/24 04:40:57;;;;;;;;;;;;;;;5.28;100.00;102560.34;5031740;28;20313;-48
2021/11/24 04:43:27;;;;;;;;;;;;;;;5.28;100.00;102554.28;5046310;28;19941;-55
2021/11/24 04:45:54;;;;;;;;;;;;;;;5.20;100.00;102551.78;5030000;28;20300;-54
2021/11/24 04:48:21;;;;;;;;;;;;;;;5.10;100.00;102553.69;5046806;28;19936;-55
2021/11/24 04:50:48;;;;;;;;;;;;;;;5.12;100.00;102548.44;5030980;28;19925;-54
2021/11/24 04:53:15;;;;;;;;;;;;;;;5.04;100.00;102544.19;5032001;28;19983;-55
2021/11/24 04:55:41;;;;;;;;;;;;;;;4.93;100.00;102545.22;5031333;28;19929;-55
2021/11/24 04:58:08;;;;;;;;;;;;;;;5.02;100.00;102545.09;5031481;28;20369;-49
2021/11/24 05:00:35;;;;;;;;;;;;;;;5.00;100.00;102539.03;5029460;28;19925;-49
2021/11/24 05:03:01;;;;;;;;;;;;;;;4.96;100.00;102532.16;5031470;28;19926;-54
2021/11/24 05:05:30;;;;;;;;;;;;;;;5.00;100.00;102533.81;5034235;28;20011;-54
2021/11/24 05:07:56;;;;;;;;;;;;;;;4.95;100.00;102543.44;5034227;28;19980;-54
2021/11/24 05:10:23;;;;;;;;;;;;;;;4.94;100.00;102536.53;5032165;28;19966;-56
2021/11/24 05:12:51;;;;;;;;;;;;;;;4.98;100.00;102538.22;5031029;28;20450;-47
2021/11/24 05:15:38;;;;;;;;;;;;;;;4.95;100.00;102536.50;5029483;28;19952;-51
2021/11/24 05:18:07;;;;;;;;;;;;;;;4.93;100.00;102535.66;5030913;28;19925;-53
2021/11/24 05:20:35;;;;;;;;;;;;;;;4.95;100.00;102530.41;5030772;28;20411;-52
2021/11/24 05:23:05;;;;;;;;;;;;;;;4.94;100.00;102531.31;5046452;28;20335;-51
2021/11/24 05:25:32;;;;;;;;;;;;;;;4.92;100.00;102531.31;5029350;28;20361;-52
2021/11/24 05:27:59;;;;;;;;;;;;;;;4.90;100.00;102527.88;5033661;28;19935;-53
2021/11/24 05:30:27;;;;;;;;;;;;;;;4.84;100.00;102526.22;5032871;28;20434;-51
2021/11/24 05:32:54;;;;;;;;;;;;;;;4.79;100.00;102525.44;5031839;28;20387;-48
2021/11/24 05:35:21;;;;;;;;;;;;;;;4.81;100.00;102528.84;5058284;28;19928;-49
2021/11/24 05:37:49;;;;;;;;;;;;;;;4.81;100.00;102526.25;5053410;28;19932;-51
2021/11/24 05:40:16;;;;;;;;;;;;;;;4.86;100.00;102529.66;5068938;28;20318;-52
2021/11/24 05:42:48;;;;;;;;;;;;;;;4.85;100.00;102524.47;5069035;28;20023;-54
2021/11/24 05:45:27;;;;;;;;;;;;;;;4.84;100.00;102522.75;5052538;28;19979;-51
2021/11/24 05:48:05;;;;;;;;;;;;;;;4.87;100.00;102533.16;5053433;28;19957;-55
2021/11/24 05:50:39;;;;;;;;;;;;;;;4.91;100.00;102525.25;5052713;28;20284;-55
2021/11/24 05:53:05;;;;;;;;;;;;;;;4.96;100.00;102524.31;5068057;28;19935;-52
2021/11/24 05:55:32;;;;;;;;;;;;;;;4.93;100.00;102520.00;5051698;28;19925;-52
2021/11/24 05:57:59;;;;;;;;;;;;;;;4.93;100.00;102527.84;5053055;28;19925;-52
2021/11/24 06:00:25;;;;;;;;;;;;;;;4.87;100.00;102515.75;5053159;28;19929;-50
2021/11/24 06:02:52;;;;;;;;;;;;;;;4.88;100.00;102514.00;5051651;28;19932;-53
2021/11/24 06:05:19;;;;;;;;;;;;;;;4.84;100.00;102507.97;5049989;28;20387;-50
2021/11/24 06:07:45;;;;;;;;;;;;;;;4.85;100.00;102508.84;5064053;28;20050;-50
2021/11/24 06:10:12;;;;;;;;;;;;;;;4.88;100.00;102504.44;5050539;28;19936;-52
2021/11/24 06:12:39;;;;;;;;;;;;;;;4.91;100.00;102498.31;5050958;28;20347;-55
2021/11/24 06:15:06;;;;;;;;;;;;;;;4.98;100.00;102499.94;5047470;28;19929;-54
2021/11/24 06:17:32;;;;;;;;;;;;;;;4.98;100.00;102493.88;5051588;28;20414;-51
2021/11/24 06:19:59;;;;;;;;;;;;;;;4.94;100.00;102495.66;5068129;28;19940;-53
2021/11/24 06:22:25;;;;;;;;;;;;;;;4.97;100.00;102492.16;5049236;28;19986;-51
2021/11/24 06:24:52;;;;;;;;;;;;;;;4.97;100.00;102497.38;5048893;28;19961;-55
2021/11/24 06:27:19;;;;;;;;;;;;;;;4.94;100.00;102492.22;5068100;28;20391;-51
2021/11/24 06:29:45;;;;;;;;;;;;;;;4.99;100.00;102487.75;5048212;28;20433;-54
2021/11/24 06:32:12;;;;;;;;;;;;;;;4.98;100.00;102496.50;5031361;28;19928;-55
2021/11/24 06:34:39;;;;;;;;;;;;;;;4.98;100.00;102493.88;5052114;28;20265;-50
2021/11/24 06:37:05;;;;;;;;;;;;;;;5.00;100.00;102487.72;5051069;28;20471;-53
2021/11/24 06:39:32;;;;;;;;;;;;;;;5.04;100.00;102485.94;5051297;28;19968;-47
2021/11/24 06:41:59;;;;;;;;;;;;;;;5.07;100.00;102486.78;5052505;28;19987;-47
2021/11/24 06:44:26;;;;;;;;;;;;;;;5.10;100.00;102491.09;5050858;28;19924;-52
2021/11/24 06:46:52;;;;;;;;;;;;;;;5.11;100.00;102487.56;5064620;28;19929;-53
2021/11/24 06:49:19;;;;;;;;;;;;;;;5.07;100.00;102478.94;5063893;28;19933;-54
2021/11/24 06:51:46;;;;;;;;;;;;;;;5.10;100.00;102480.66;5052363;28;20426;-52
2021/11/24 06:54:12;;;;;;;;;;;;;;;5.09;100.00;102481.53;5065933;28;19995;-55
2021/11/24 06:56:43;;;;;;;;;;;;;;;5.08;100.00;102485.00;5049361;28;19933;-50
2021/11/24 06:59:10;;;;;;;;;;;;;;;5.08;100.00;102483.28;5054598;28;19925;-53
2021/11/24 07:01:36;;;;;;;;;;;;;;;5.07;100.00;102483.28;5054793;28;20914;-55
2021/11/24 07:04:08;;;;;;;;;;;;;;;5.08;100.00;102482.41;5056075;28;20002;-53
2021/11/24 07:06:35;;;;;;;;;;;;;;;5.10;100.00;102471.94;5068053;28;19925;-55
2021/11/24 07:09:03;;;;;;;;;;;;;;;5.09;100.00;102478.91;5053303;28;20426;-55
2021/11/24 07:11:32;;;;;;;;;;;;;;;5.10;100.00;102485.88;5055357;28;19928;-52
2021/11/24 07:13:59;;;;;;;;;;;;;;;5.10;100.00;102483.25;5071316;28;19925;-50
2021/11/24 07:16:25;;;;;;;;;;;;;;;5.16;100.00;102484.91;5052545;28;19983;-50
2021/11/24 07:18:52;;;;;;;;;;;;;;;5.14;100.00;102490.16;5052913;28;19935;-49
2021/11/24 07:21:19;;;;;;;;;;;;;;;5.13;100.00;102485.81;5053696;28;19930;-51
2021/11/24 07:23:46;;;;;;;;;;;;;;;5.13;100.00;102485.81;5054680;28;19975;-50
2021/11/24 07:26:12;;;;;;;;;;;;;;;5.12;100.00;102475.41;5056001;28;20593;-47
2021/11/24 07:28:39;;;;;;;;;;;;;;;5.12;100.00;102476.25;5052288;28;19971;-51
2021/11/24 07:31:06;;;;;;;;;;;;;;;5.16;100.00;102477.06;5052089;28;19963;-51
2021/11/24 07:33:32;;;;;;;;;;;;;;;5.19;100.00;102483.09;5053688;28;19983;-51
2021/11/24 07:35:59;;;;;;;;;;;;;;;5.19;100.00;102483.09;5054383;28;20292;-53
2021/11/24 07:38:26;;;;;;;;;;;;;;;5.21;100.00;102472.66;5055777;28;19975;-51
2021/11/24 07:40:52;;;;;;;;;;;;;;;5.21;100.00;102470.91;5055663;28;19925;-52
2021/11/24 07:43:19;;;;;;;;;;;;;;;5.23;100.00;102473.47;5055509;28;19925;-53
2021/11/24 07:45:46;;;;;;;;;;;;;;;5.24;100.00;102470.84;5054820;28;20291;-54
2021/11/24 07:48:13;;;;;;;;;;;;;;;5.25;100.00;102467.34;5051949;28;20419;-53
2021/11/24 07:50:40;;;;;;;;;;;;;;;5.30;100.00;102466.41;5068557;28;19925;-53
2021/11/24 07:53:06;;;;;;;;;;;;;;;5.31;100.00;102468.13;5055339;28;19932;-47
2021/11/24 07:55:33;;;;;;;;;;;;;;;5.29;100.00;102468.16;5055127;28;20332;-49
2021/11/24 07:57:59;;;;;;;;;;;;;;;5.32;100.00;102464.66;5052309;28;19925;-52
2021/11/24 08:00:31;;;;;;;;;;;;;;;5.33;100.00;102455.91;5050627;28;20012;-52
2021/11/24 08:02:57;;;;;;;;;;;;;;;5.34;100.00;102460.25;5052642;28;19925;-55
2021/11/24 08:05:24;;;;;;;;;;;;;;;5.42;100.00;102458.38;5052218;28;20434;-52
2021/11/24 08:07:52;;;;;;;;;;;;;;;5.41;100.00;102452.28;5054244;28;20348;-54
2021/11/24 08:10:20;;;;;;;;;;;;;;;5.42;100.00;102455.75;5053061;28;20012;-52
2021/11/24 08:12:47;;;;;;;;;;;;;;;5.46;100.00;102457.41;5055201;28;19928;-49
2021/11/24 08:15:14;;;;;;;;;;;;;;;5.44;100.00;102451.38;5053849;28;20315;-48
2021/11/24 08:17:40;;;;;;;;;;;;;;;5.47;100.00;102451.31;5052227;28;19969;-48
2021/11/24 08:20:08;;;;;;;;;;;;;;;5.49;100.00;102446.91;5068886;28;19928;-50
2021/11/24 08:22:34;;;;;;;;;;;;;;;5.53;100.00;102439.91;5052912;28;19975;-50
2021/11/24 08:25:02;;;;;;;;;;;;;;;5.60;100.00;102438.88;5052209;28;19935;-50
2021/11/24 08:27:28;;;;;;;;;;;;;;;5.67;100.00;102439.63;5050614;28;19968;-53
2021/11/24 08:29:55;;;;;;;;;;;;;;;5.68;100.00;102433.53;5051406;28;19929;-50
2021/11/24 08:32:22;;;;;;;;;;;;;;;5.69;100.00;102433.50;5053561;28;19932;-49
2021/11/24 08:34:48;;;;;;;;;;;;;;;5.71;100.00;102429.13;5070187;28;19932;-47
2021/11/24 08:37:15;;;;;;;;;;;;;;;5.79;100.00;102431.56;5052546;28;19948;-51
2021/11/24 08:39:42;;;;;;;;;;;;;;;5.79;100.00;102430.72;5051836;28;20395;-47
2021/11/24 08:42:09;;;;;;;;;;;;;;;5.78;100.00;102422.03;5054671;28;19925;-52
2021/11/24 08:44:41;;;;;;;;;;;;;;;5.84;100.00;102415.81;5054189;28;19932;-52
2021/11/24 08:47:07;;;;;;;;;;;;;;;5.84;100.00;102414.06;5054394;28;20410;-51
2021/11/24 08:49:34;;;;;;;;;;;;;;;5.86;100.00;102407.06;5069685;28;20395;-52
2021/11/24 08:52:01;;;;;;;;;;;;;;;5.92;100.00;102404.31;5052253;28;20296;-48
2021/11/24 08:54:28;;;;;;;;;;;;;;;5.89;100.00;102409.63;5051365;28;19929;-52
2021/11/24 08:56:55;;;;;;;;;;;;;;;5.87;100.00;102403.53;5051073;28;19990;-52
2021/11/24 08:59:21;;;;;;;;;;;;;;;5.85;100.00;102407.97;5050475;28;19924;-50
2021/11/24 09:01:48;;;;;;;;;;;;;;;5.92;100.00;102406.09;5050707;28;19929;-52
2021/11/24 09:04:15;;;;;;;;;;;;;;;5.88;100.00;102402.66;5051566;28;19928;-52
2021/11/24 09:06:41;;;;;;;;;;;;;;;5.90;100.00;102411.34;5066219;28;19929;-48
2021/11/24 09:09:08;;;;;;;;;;;;;;;5.92;100.00;102403.47;5051473;28;20304;-50
2021/11/24 09:11:35;;;;;;;;;;;;;;;5.98;100.00;102405.13;5053134;28;19925;-51
2021/11/24 09:14:04;;;;;;;;;;;;;;;6.06;100.00;102401.44;5050082;28;19928;-48
2021/11/24 09:16:30;;;;;;;;;;;;;;;6.07;100.00;102407.53;5050002;28;19999;-51
2021/11/24 09:18:57;;;;;;;;;;;;;;;6.16;100.00;102399.53;5051118;28;20384;-51
2021/11/24 09:21:24;;;;;;;;;;;;;;;6.13;100.00;102409.16;5051254;28;20459;-53
2021/11/24 09:23:59;;;;;;;;;;;;;;;6.11;100.00;102398.75;5052298;28;19924;-56
2021/11/24 09:26:43;;;;;;;;;;;;;;;6.17;100.00;102406.44;5053547;28;19952;-55
2021/11/24 09:29:10;;;;;;;;;;;;;;;6.21;100.00;102402.03;5050617;28;19932;-53
2021/11/24 09:31:37;;;;;;;;;;;;;;;6.23;100.00;102403.72;5065645;28;19929;-50
2021/11/24 09:34:04;;;;;;;;;;;;;;;6.23;100.00;102403.72;5068307;28;19994;-52
2021/11/24 09:36:31;;;;;;;;;;;;;;;6.32;100.00;102393.94;5050764;28;20015;-52
2021/11/24 09:38:58;;;;;;;;;;;;;;;6.33;100.00;102393.06;5052076;28;19936;-52
2021/11/24 09:41:28;;;;;;;;;;;;;;;6.35;100.00;102391.25;5053549;28;19931;-54
2021/11/24 09:43:56;;;;;;;;;;;;;;;6.36;100.00;102385.13;5052062;28;19924;-50
2021/11/24 09:46:24;;;;;;;;;;;;;;;6.44;100.00;102393.66;5068436;28;19928;-52
2021/11/24 09:48:51;;;;;;;;;;;;;;;6.42;100.00;102388.47;5053336;28;20312;-48
2021/11/24 09:51:19;;;;;;;;;;;;;;;6.43;100.00;102384.97;5053517;28;20003;-54
2021/11/24 09:53:47;;;;;;;;;;;;;;;6.47;100.00;102385.75;5053333;28;19925;-49
2021/11/24 09:56:13;;;;;;;;;;;;;;;6.54;100.00;102373.38;5053100;28;19951;-52
2021/11/24 09:58:40;;;;;;;;;;;;;;;6.56;100.00;102372.47;5049480;28;19929;-49
2021/11/24 10:01:07;;;;;;;;;;;;;;;6.57;100.00;102361.13;5050289;28;19925;-49
2021/11/24 10:03:33;;;;;;;;;;;;;;;6.57;100.00;102357.63;5053276;28;19929;-49
2021/11/24 10:06:01;;;;;;;;;;;;;;;6.69;100.00;102359.94;5053154;28;19932;-49
2021/11/24 10:08:32;;;;;;;;;;;;;;;6.80;100.00;102358.81;5066782;28;19929;-53
2021/11/24 10:10:59;;;;;;;;;;;;;;;6.84;100.00;102347.38;5050184;28;19970;-49
2021/11/24 10:13:27;;;;;;;;;;;;;;;6.90;100.00;102349.84;5065886;28;19973;-52
2021/11/24 10:15:56;;;;;;;;;;;;;;;6.97;100.00;102345.31;5052690;28;19925;-49
2021/11/24 10:18:28;;;;;;;;;;;;;;;6.96;100.00;102333.16;5052048;28;20372;-49
2021/11/24 10:21:02;;;;;;;;;;;;;;;7.05;100.00;102338.13;5050527;28;19933;-55
2021/11/24 10:23:45;;;;;;;;;;;;;;;6.98;100.00;102332.22;5049904;28;20422;-55
2021/11/24 10:26:15;;;;;;;;;;;;;;;7.13;100.00;102327.44;5050439;28;19932;-54
2021/11/24 10:28:48;;;;;;;;;;;;;;;7.24;100.00;102323.66;5052687;28;19979;-50
2021/11/24 10:31:27;;;;;;;;;;;;;;;7.29;100.00;102320.91;5052439;28;19932;-50
2021/11/24 10:33:55;;;;;;;;;;;;;;;7.23;100.00;102321.09;5052679;28;19925;-57
2021/11/24 10:36:21;;;;;;;;;;;;;;;7.27;100.00;102320.09;5065639;28;19925;-55
2021/11/24 10:38:51;;;;;;;;;;;;;;;7.38;100.00;102315.41;5050816;28;20406;-55
2021/11/24 10:41:28;;;;;;;;;;;;;;;7.42;100.00;102314.41;5051493;28;20372;-50
2021/11/24 10:44:25;;;;;;;;;;;;;;;7.47;100.00;102314.28;5052580;28;19928;-52
2021/11/24 10:46:54;;;;;;;;;;;;;;;7.51;100.00;102304.59;5052122;28;20627;-56
2021/11/24 10:49:29;;;;;;;;;;;;;;;7.58;100.00;102300.88;5049993;28;20027;-54
2021/11/24 10:51:56;;;;;;;;;;;;;;;7.64;100.00;102299.88;5049881;28;20446;-56
2021/11/24 10:54:22;;;;;;;;;;;;;;;7.66;100.00;102293.66;5050323;28;19924;-55
2021/11/24 10:57:18;;;;;;;;;;;;;;;7.64;100.00;102285.00;5050068;28;19994;-56
2021/11/24 10:59:45;;;;;;;;;;;;;;;7.70;100.00;102279.59;5047439;28;20137;-49
2021/11/24 11:02:17;;;;;;;;;;;;;;;7.71;100.00;102273.44;5051439;28;19963;-57
2021/11/24 11:04:53;;;;;;;;;;;;;;;7.72;100.00;102274.31;5049753;28;19951;-54
2021/11/24 11:07:20;;;;;;;;;;;;;;;7.74;100.00;102267.25;5049938;28;19925;-57
2021/11/24 11:09:46;;;;;;;;;;;;;;;7.76;100.00;102261.06;5049401;28;19943;-50
2021/11/24 11:12:13;;;;;;;;;;;;;;;7.77;100.00;102260.16;5052257;28;19925;-53
2021/11/24 11:14:40;;;;;;;;;;;;;;;7.79;100.00;102255.72;5052431;28;19932;-56
2021/11/24 11:17:06;;;;;;;;;;;;;;;7.82;100.00;102257.38;5050969;28;19931;-54
2021/11/24 11:19:38;;;;;;;;;;;;;;;7.73;99.77;102260.28;5052195;28;19948;-56
2021/11/24 11:22:05;;;;;;;;;;;;;;;7.79;100.00;102250.47;5065293;28;20707;-55
2021/11/24 11:24:33;;;;;;;;;;;;;;;7.82;100.00;102236.44;5050006;28;20010;-53
2021/11/24 11:27:00;;;;;;;;;;;;;;;7.85;100.00;102236.31;5067298;28;19929;-48
2021/11/24 11:29:26;;;;;;;;;;;;;;;7.85;100.00;102231.09;5052297;28;20395;-49
2021/11/24 11:31:58;;;;;;;;;;;;;;;7.79;100.00;102226.06;5050741;28;20307;-49
2021/11/24 11:34:25;;;;;;;;;;;;;;;7.81;100.00;102213.75;5052117;28;19924;-54
2021/11/24 11:36:51;;;;;;;;;;;;;;;7.90;100.00;102207.38;5066822;28;19932;-48
2021/11/24 11:39:19;;;;;;;;;;;;;;;7.89;100.00;102208.28;5049817;28;20403;-57
2021/11/24 11:41:49;;;;;;;;;;;;;;;7.83;99.73;102193.63;5050168;28;20015;-49
2021/11/24 11:44:35;;;;;;;;;;;;;;;7.77;99.80;102188.56;5053599;28;19929;-57
2021/11/24 11:47:40;;;;;;;;;;;;;;;7.77;98.70;102185.94;5068350;28;20023;-57
2021/11/24 11:50:11;;;;;;;;;;;;;;;7.76;100.00;102179.88;5055869;28;19925;-57
2021/11/24 11:52:38;;;;;;;;;;;;;;;7.81;100.00;102177.09;5069367;28;20395;-54
2021/11/24 11:55:17;;;;;;;;;;;;;;;7.73;100.00;102173.84;5052790;28;19933;-52
2021/11/24 11:57:44;;;;;;;;;;;;;;;7.82;100.00;102168.34;5052567;28;20002;-56
2021/11/24 12:00:11;;;;;;;;;;;;;;;7.83;100.00;102149.09;5055356;28;20337;-48
2021/11/24 12:02:50;;;;;;;;;;;;;;;7.89;98.28;102154.13;5054114;28;19962;-56
2021/11/24 12:05:18;;;;;;;;;;;;;;;7.82;99.23;102144.75;5052214;28;19959;-56
2021/11/24 12:08:03;;;;;;;;;;;;;;;7.91;98.40;102147.09;5054475;28;19928;-56
2021/11/24 12:10:48;;;;;;;;;;;;;;;7.95;98.45;102132.97;5051361;28;19925;-55
2021/11/24 12:13:14;;;;;;;;;;;;;;;8.02;98.40;102132.78;5053917;28;19925;-49
2021/11/24 12:15:41;;;;;;;;;;;;;;;7.88;96.00;102133.22;5055099;28;19996;-54
2021/11/24 12:18:11;;;;;;;;;;;;;;;7.93;95.89;102128.69;5055065;28;19925;-55
2021/11/24 12:20:40;;;;;;;;;;;;;;;7.97;94.15;102119.81;5055028;28;19925;-56
2021/11/24 12:23:27;;;;;;;;;;;;;;;7.94;96.36;102110.28;5054884;28;19925;-53
2021/11/24 12:25:54;;;;;;;;;;;;;;;7.91;95.29;102109.56;5053846;28;19925;-47
2021/11/24 12:28:21;;;;;;;;;;;;;;;7.92;95.52;102101.66;5055008;28;19925;-56
2021/11/24 12:30:50;;;;;;;;;;;;;;;7.89;96.21;102096.50;5053441;28;20405;-49
2021/11/24 12:33:16;;;;;;;;;;;;;;;7.87;95.08;102089.63;5051638;28;19925;-57
2021/11/24 12:35:52;;;;;;;;;;;;;;;7.93;94.52;102086.78;5051716;28;19925;-50
2021/11/24 12:38:43;;;;;;;;;;;;;;;7.94;96.03;102089.34;5053426;28;19924;-55
2021/11/24 12:41:15;;;;;;;;;;;;;;;7.98;97.46;102084.00;5051475;28;19967;-49
2021/11/24 12:43:43;;;;;;;;;;;;;;;7.94;96.99;102078.00;5051713;28;20290;-54